sensor_id;sensor_type;location;lat;lon;timestamp;temperature;humidity
19728;DHT22;10015;52.530;13.390;2022-11-20T06:30:19;2.60;99.90
19728;DHT22;10015;52.530;13.390;2022-11-20T06:32:47;2.60;99.90
19728;DHT22;10015;52.530;13.390;2022-11-20T06:35:16;2.70;99.90
19728;DHT22;10015;52.530;13.390;2022-11-20T06:37:43;2.70;99.90
19728;DHT22;10015;52.530;13.390;2022-11-20T06:40:09;2.70;99.90
19728;DHT22;10015;52.530;13.390;2022-11-20T06:42:35;2.70;99.90
19728;DHT22;10015;52.530;13.390;2022-11-20T06:45:01;2.70;99.90
19728;DHT22;10015;52.530;13.390;2022-11-20T06:47:27;2.60;99.90
19728;DHT22;10015;52.530;13.390;2022-11-20T06:49:53;2.60;99.90
19728;DHT22;10015;52.530;13.390;2022-11-20T06:52:19;2.60;99.90
19728;DHT22;10015;52.530;13.390;2022-11-20T06:54:45;2.60;99.90
19728;DHT22;10015;52.530;13.390;2022-11-20T06:57:11;2.70;99.90
19728;DHT22;10015;52.530;13.390;2022-11-20T06:59:37;2.70;99.90
19728;DHT22;10015;52.530;13.390;2022-11-20T07:02:03;2.70;99.90
19728;DHT22;10015;52.530;13.390;2022-11-20T07:04:29;2.70;99.90
19728;DHT22;10015;52.530;13.390;2022-11-20T07:06:55;2.60;99.90
19728;DHT22;10015;52.530;13.390;2022-11-20T07:09:21;2.60;99.90
19728;DHT22;10015;52.530;13.390;2022-11-20T07:11:46;2.60;99.90
19728;DHT22;10015;52.530;13.390;2022-11-20T07:14:12;2.50;99.90
19728;DHT22;10015;52.530;13.390;2022-11-20T07:16:38;2.60;99.90
19728;DHT22;10015;52.530;13.390;2022-11-20T07:19:04;2.60;99.90
19728;DHT22;10015;52.530;13.390;2022-11-20T07:21:30;2.60;99.90
19728;DHT22;10015;52.530;13.390;2022-11-20T07:23:56;2.70;99.90
19728;DHT22;10015;52.530;13.390;2022-11-20T07:26:22;2.60;99.90
19728;DHT22;10015;52.530;13.390;2022-11-20T07:28:48;2.70;99.90
19728;DHT22;10015;52.530;13.390;2022-11-20T07:31:14;2.60;99.90
19728;DHT22;10015;52.530;13.390;2022-11-20T07:33:41;2.60;99.90
19728;DHT22;10015;52.530;13.390;2022-11-20T07:36:08;2.50;99.90
19728;DHT22;10015;52.530;13.390;2022-11-20T07:38:34;2.60;99.90
19728;DHT22;10015;52.530;13.390;2022-11-20T07:41:00;2.50;99.90
19728;DHT22;10015;52.530;13.390;2022-11-20T07:43:27;2.60;99.90
19728;DHT22;10015;52.530;13.390;2022-11-20T07:45:57;2.60;99.90
19728;DHT22;10015;52.530;13.390;2022-11-20T07:48:24;2.70;99.90
19728;DHT22;10015;52.530;13.390;2022-11-20T07:50:53;2.70;99.90
19728;DHT22;10015;52.530;13.390;2022-11-20T07:53:19;2.60;99.90
19728;DHT22;10015;52.530;13.390;2022-11-20T07:55:47;2.50;99.90
19728;DHT22;10015;52.530;13.390;2022-11-20T07:58:13;2.50;99.90
19728;DHT22;10015;52.530;13.390;2022-11-20T08:00:40;2.50;99.90
19728;DHT22;10015;52.530;13.390;2022-11-20T08:03:07;2.40;99.90
19728;DHT22;10015;52.530;13.390;2022-11-20T08:05:33;2.40;99.90
19728;DHT22;10015;52.530;13.390;2022-11-20T08:07:59;2.40;99.90
19728;DHT22;10015;52.530;13.390;2022-11-20T08:10:25;2.30;99.90
19728;DHT22;10015;52.530;13.390;2022-11-20T08:12:52;2.30;99.90
19728;DHT22;10015;52.530;13.390;2022-11-20T08:15:38;2.30;99.90
19728;DHT22;10015;52.530;13.390;2022-11-20T08:18:09;2.30;99.90
19728;DHT22;10015;52.530;13.390;2022-11-20T08:20:39;2.30;99.90
19728;DHT22;10015;52.530;13.390;2022-11-20T08:23:06;2.40;99.90
19728;DHT22;10015;52.530;13.390;2022-11-20T08:25:34;2.40;99.90
19728;DHT22;10015;52.530;13.390;2022-11-20T08:28:02;2.50;99.90
19728;DHT22;10015;52.530;13.390;2022-11-20T08:30:29;2.50;99.90
19728;DHT22;10015;52.530;13.390;2022-11-20T08:33:01;2.60;99.90
19728;DHT22;10015;52.530;13.390;2022-11-20T08:35:28;2.60;99.90
19728;DHT22;10015;52.530;13.390;2022-11-20T08:37:54;2.60;99.90
19728;DHT22;10015;52.530;13.390;2022-11-20T08:40:20;2.70;99.90
19728;DHT22;10015;52.530;13.390;2022-11-20T08:42:50;2.50;99.90
19728;DHT22;10015;52.530;13.390;2022-11-20T08:45:18;2.20;99.90
19728;DHT22;10015;52.530;13.390;2022-11-20T08:47:44;2.30;99.90
19728;DHT22;10015;52.530;13.390;2022-11-20T08:50:12;2.60;99.90
19728;DHT22;10015;52.530;13.390;2022-11-20T08:52:40;2.50;99.90
19728;DHT22;10015;52.530;13.390;2022-11-20T08:55:06;2.50;99.90
19728;DHT22;10015;52.530;13.390;2022-11-20T08:57:37;2.40;99.90
19728;DHT22;10015;52.530;13.390;2022-11-20T09:00:05;2.30;99.90
19728;DHT22;10015;52.530;13.390;2022-11-20T09:02:31;2.20;99.90
19728;DHT22;10015;52.530;13.390;2022-11-20T09:04:58;2.30;99.90
19728;DHT22;10015;52.530;13.390;2022-11-20T09:07:24;2.40;99.90
19728;DHT22;10015;52.530;13.390;2022-11-20T09:09:50;2.30;99.90
19728;DHT22;10015;52.530;13.390;2022-11-20T09:12:16;2.30;99.90
19728;DHT22;10015;52.530;13.390;2022-11-20T09:14:42;2.20;99.90
19728;DHT22;10015;52.530;13.390;2022-11-20T09:17:10;2.40;99.90
19728;DHT22;10015;52.530;13.390;2022-11-20T09:19:39;2.30;99.90
19728;DHT22;10015;52.530;13.390;2022-11-20T09:22:05;2.40;99.90
19728;DHT22;10015;52.530;13.390;2022-11-20T09:24:32;2.50;99.90
19728;DHT22;10015;52.530;13.390;2022-11-20T09:26:58;2.60;99.90
19728;DHT22;10015;52.530;13.390;2022-11-20T09:29:24;2.80;99.90
19728;DHT22;10015;52.530;13.390;2022-11-20T09:31:50;2.90;99.90
19728;DHT22;10015;52.530;13.390;2022-11-20T09:34:16;3.00;99.90
19728;DHT22;10015;52.530;13.390;2022-11-20T09:36:42;3.10;99.90
19728;DHT22;10015;52.530;13.390;2022-11-20T09:39:08;3.10;99.90
19728;DHT22;10015;52.530;13.390;2022-11-20T09:42:04;3.10;99.90
19728;DHT22;10015;52.530;13.390;2022-11-20T09:55:39;2.90;99.90
19728;DHT22;10015;52.530;13.390;2022-11-20T09:58:07;2.90;99.90
19728;DHT22;10015;52.530;13.390;2022-11-20T10:00:35;3.00;99.90
19728;DHT22;10015;52.530;13.390;2022-11-20T10:03:10;3.10;99.90
19728;DHT22;10015;52.530;13.390;2022-11-20T10:05:56;3.10;99.90
19728;DHT22;10015;52.530;13.390;2022-11-20T10:08:40;3.10;99.90
19728;DHT22;10015;52.530;13.390;2022-11-20T10:11:30;3.10;99.90
19728;DHT22;10015;52.530;13.390;2022-11-20T10:22:31;3.10;99.90
19728;DHT22;10015;52.530;13.390;2022-11-20T10:30:37;3.20;99.90
19728;DHT22;10015;52.530;13.390;2022-11-20T10:33:10;3.10;99.90
19728;DHT22;10015;52.530;13.390;2022-11-20T10:35:46;3.10;99.90
19728;DHT22;10015;52.530;13.390;2022-11-20T10:38:20;3.10;99.90
19728;DHT22;10015;52.530;13.390;2022-11-20T10:40:57;3.10;99.90
19728;DHT22;10015;52.530;13.390;2022-11-20T10:43:44;3.10;99.90
19728;DHT22;10015;52.530;13.390;2022-11-20T10:46:17;3.10;99.90
19728;DHT22;10015;52.530;13.390;2022-11-20T10:48:45;3.10;99.90
19728;DHT22;10015;52.530;13.390;2022-11-20T10:51:43;3.30;99.90
19728;DHT22;10015;52.530;13.390;2022-11-20T10:56:50;3.10;99.90
19728;DHT22;10015;52.530;13.390;2022-11-20T11:02:44;3.40;99.90
19728;DHT22;10015;52.530;13.390;2022-11-20T11:07:54;3.60;99.90
19728;DHT22;10015;52.530;13.390;2022-11-20T11:13:27;3.50;99.90
19728;DHT22;10015;52.530;13.390;2022-11-20T11:15:54;3.60;99.90
19728;DHT22;10015;52.530;13.390;2022-11-20T11:18:38;3.80;99.90
19728;DHT22;10015;52.530;13.390;2022-11-20T11:21:05;3.80;99.90
19728;DHT22;10015;52.530;13.390;2022-11-20T11:23:40;3.80;99.90
19728;DHT22;10015;52.530;13.390;2022-11-20T11:26:17;3.70;99.90
19728;DHT22;10015;52.530;13.390;2022-11-20T11:28:56;3.30;99.90
19728;DHT22;10015;52.530;13.390;2022-11-20T11:31:28;3.30;99.90
19728;DHT22;10015;52.530;13.390;2022-11-20T11:34:05;3.50;99.90
19728;DHT22;10015;52.530;13.390;2022-11-20T11:36:33;3.60;99.90
19728;DHT22;10015;52.530;13.390;2022-11-20T11:39:01;3.60;99.90
19728;DHT22;10015;52.530;13.390;2022-11-20T11:41:34;3.70;99.90
19728;DHT22;10015;52.530;13.390;2022-11-20T11:44:19;3.80;99.90
19728;DHT22;10015;52.530;13.390;2022-11-20T11:47:10;3.80;99.90
19728;DHT22;10015;52.530;13.390;2022-11-20T11:49:37;3.70;99.90
19728;DHT22;10015;52.530;13.390;2022-11-20T11:52:17;3.70;99.90
19728;DHT22;10015;52.530;13.390;2022-11-20T11:54:55;3.70;99.90
19728;DHT22;10015;52.530;13.390;2022-11-20T11:57:29;3.80;99.90
19728;DHT22;10015;52.530;13.390;2022-11-20T12:05:27;3.70;99.90
19728;DHT22;10015;52.530;13.390;2022-11-20T12:08:09;3.70;99.90
19728;DHT22;10015;52.530;13.390;2022-11-20T12:16:01;3.80;99.90
19728;DHT22;10015;52.530;13.390;2022-11-20T12:18:28;3.70;99.90
19728;DHT22;10015;52.530;13.390;2022-11-20T12:21:19;3.70;99.90
19728;DHT22;10015;52.530;13.390;2022-11-20T12:37:37;3.70;99.90
19728;DHT22;10015;52.530;13.390;2022-11-20T12:40:46;3.70;99.90
19728;DHT22;10015;52.530;13.390;2022-11-20T12:46:39;3.90;99.90
19728;DHT22;10015;52.530;13.390;2022-11-20T12:57:21;3.90;99.90
19728;DHT22;10015;52.530;13.390;2022-11-20T13:00:00;4.00;99.90
19728;DHT22;10015;52.530;13.390;2022-11-20T13:02:54;4.00;99.90
19728;DHT22;10015;52.530;13.390;2022-11-20T17:17:09;2.80;99.90
19728;DHT22;10015;52.530;13.390;2022-11-20T17:19:35;2.90;99.90
19728;DHT22;10015;52.530;13.390;2022-11-20T17:22:01;2.90;99.90
19728;DHT22;10015;52.530;13.390;2022-11-20T17:24:27;2.90;99.90
19728;DHT22;10015;52.530;13.390;2022-11-20T17:26:53;2.90;99.90
19728;DHT22;10015;52.530;13.390;2022-11-20T17:29:19;2.90;99.90
19728;DHT22;10015;52.530;13.390;2022-11-20T17:31:49;2.90;99.90
19728;DHT22;10015;52.530;13.390;2022-11-20T17:34:15;3.00;99.90
19728;DHT22;10015;52.530;13.390;2022-11-20T17:36:42;3.00;99.90
19728;DHT22;10015;52.530;13.390;2022-11-20T17:39:10;3.00;99.90
19728;DHT22;10015;52.530;13.390;2022-11-20T17:41:37;3.00;99.90
19728;DHT22;10015;52.530;13.390;2022-11-20T17:44:03;3.00;99.90
19728;DHT22;10015;52.530;13.390;2022-11-20T17:46:31;2.90;99.90
19728;DHT22;10015;52.530;13.390;2022-11-20T17:49:01;2.90;99.90
19728;DHT22;10015;52.530;13.390;2022-11-20T17:51:30;3.00;99.90
19728;DHT22;10015;52.530;13.390;2022-11-20T17:53:59;3.00;99.90
19728;DHT22;10015;52.530;13.390;2022-11-20T17:56:29;3.00;99.90
19728;DHT22;10015;52.530;13.390;2022-11-20T17:59:14;3.00;99.90
19728;DHT22;10015;52.530;13.390;2022-11-20T18:01:43;3.10;99.90
19728;DHT22;10015;52.530;13.390;2022-11-20T18:04:10;3.10;99.90
19728;DHT22;10015;52.530;13.390;2022-11-20T18:06:37;3.10;99.90
19728;DHT22;10015;52.530;13.390;2022-11-20T18:09:04;3.10;99.90
19728;DHT22;10015;52.530;13.390;2022-11-20T18:11:33;3.10;99.90
19728;DHT22;10015;52.530;13.390;2022-11-20T18:14:00;3.10;99.90
19728;DHT22;10015;52.530;13.390;2022-11-20T18:16:56;3.10;99.90
19728;DHT22;10015;52.530;13.390;2022-11-20T18:19:26;3.10;99.90
19728;DHT22;10015;52.530;13.390;2022-11-20T18:21:52;3.10;99.90
19728;DHT22;10015;52.530;13.390;2022-11-20T18:24:18;3.10;99.90
19728;DHT22;10015;52.530;13.390;2022-11-20T18:26:45;3.10;99.90
19728;DHT22;10015;52.530;13.390;2022-11-20T18:29:12;3.10;99.90
19728;DHT22;10015;52.530;13.390;2022-11-20T18:31:39;3.10;99.90
19728;DHT22;10015;52.530;13.390;2022-11-20T18:34:06;3.10;99.90
19728;DHT22;10015;52.530;13.390;2022-11-20T18:36:36;3.10;99.90
19728;DHT22;10015;52.530;13.390;2022-11-20T18:39:02;3.10;99.90
19728;DHT22;10015;52.530;13.390;2022-11-20T18:41:29;3.20;99.90
19728;DHT22;10015;52.530;13.390;2022-11-20T18:44:20;3.20;99.90
19728;DHT22;10015;52.530;13.390;2022-11-20T18:47:07;3.10;99.90
19728;DHT22;10015;52.530;13.390;2022-11-20T18:49:33;3.00;99.90
19728;DHT22;10015;52.530;13.390;2022-11-20T18:52:00;3.00;99.90
19728;DHT22;10015;52.530;13.390;2022-11-20T18:54:26;3.00;99.90
19728;DHT22;10015;52.530;13.390;2022-11-20T18:56:52;2.90;99.90
19728;DHT22;10015;52.530;13.390;2022-11-20T18:59:19;3.00;99.90
19728;DHT22;10015;52.530;13.390;2022-11-20T19:01:46;2.90;99.90
19728;DHT22;10015;52.530;13.390;2022-11-20T19:04:16;2.90;99.90
19728;DHT22;10015;52.530;13.390;2022-11-20T19:06:44;2.90;99.90
19728;DHT22;10015;52.530;13.390;2022-11-20T19:09:12;3.00;99.90
19728;DHT22;10015;52.530;13.390;2022-11-20T19:11:39;2.90;99.90
19728;DHT22;10015;52.530;13.390;2022-11-20T19:14:05;3.00;99.90
19728;DHT22;10015;52.530;13.390;2022-11-20T19:16:32;2.90;99.90
19728;DHT22;10015;52.530;13.390;2022-11-20T19:19:03;2.80;99.90
19728;DHT22;10015;52.530;13.390;2022-11-20T19:21:29;2.90;99.90
19728;DHT22;10015;52.530;13.390;2022-11-20T19:23:57;2.80;99.90
19728;DHT22;10015;52.530;13.390;2022-11-20T19:26:24;2.70;99.90
19728;DHT22;10015;52.530;13.390;2022-11-20T19:28:50;2.60;99.90
19728;DHT22;10015;52.530;13.390;2022-11-20T19:31:22;2.70;99.90
19728;DHT22;10015;52.530;13.390;2022-11-20T19:34:08;2.80;99.90
19728;DHT22;10015;52.530;13.390;2022-11-20T19:36:36;2.90;99.90
19728;DHT22;10015;52.530;13.390;2022-11-20T19:39:04;3.00;99.90
19728;DHT22;10015;52.530;13.390;2022-11-20T19:41:32;3.00;99.90
19728;DHT22;10015;52.530;13.390;2022-11-20T19:44:00;3.00;99.90
19728;DHT22;10015;52.530;13.390;2022-11-20T19:46:29;3.00;99.90
19728;DHT22;10015;52.530;13.390;2022-11-20T19:48:55;3.00;99.90
19728;DHT22;10015;52.530;13.390;2022-11-20T19:51:27;2.90;99.90
19728;DHT22;10015;52.530;13.390;2022-11-20T19:53:56;2.90;99.90
19728;DHT22;10015;52.530;13.390;2022-11-20T19:56:23;2.90;99.90
19728;DHT22;10015;52.530;13.390;2022-11-20T19:58:49;3.00;99.90
19728;DHT22;10015;52.530;13.390;2022-11-20T20:01:19;3.00;99.90
19728;DHT22;10015;52.530;13.390;2022-11-20T20:03:46;3.00;99.90
19728;DHT22;10015;52.530;13.390;2022-11-20T20:06:19;3.10;99.90
19728;DHT22;10015;52.530;13.390;2022-11-20T20:08:46;3.10;99.90
19728;DHT22;10015;52.530;13.390;2022-11-20T20:11:14;3.00;99.90
19728;DHT22;10015;52.530;13.390;2022-11-20T20:13:41;3.00;99.90
19728;DHT22;10015;52.530;13.390;2022-11-20T20:16:14;3.00;99.90
19728;DHT22;10015;52.530;13.390;2022-11-20T20:18:40;3.00;99.90
19728;DHT22;10015;52.530;13.390;2022-11-20T20:21:08;3.00;99.90
19728;DHT22;10015;52.530;13.390;2022-11-20T20:23:36;3.00;99.90
19728;DHT22;10015;52.530;13.390;2022-11-20T20:26:03;3.00;99.90
19728;DHT22;10015;52.530;13.390;2022-11-20T20:28:30;2.90;99.90
19728;DHT22;10015;52.530;13.390;2022-11-20T20:30:57;2.80;99.90
19728;DHT22;10015;52.530;13.390;2022-11-20T20:33:23;2.90;99.90
19728;DHT22;10015;52.530;13.390;2022-11-20T20:35:49;2.80;99.90
19728;DHT22;10015;52.530;13.390;2022-11-20T20:38:15;2.90;99.90
19728;DHT22;10015;52.530;13.390;2022-11-20T20:40:46;2.90;99.90
19728;DHT22;10015;52.530;13.390;2022-11-20T20:43:13;2.80;99.90
19728;DHT22;10015;52.530;13.390;2022-11-20T20:45:47;2.80;99.90
19728;DHT22;10015;52.530;13.390;2022-11-20T20:48:16;2.80;99.90
19728;DHT22;10015;52.530;13.390;2022-11-20T20:50:51;2.70;99.90
19728;DHT22;10015;52.530;13.390;2022-11-20T20:53:17;2.70;99.90
19728;DHT22;10015;52.530;13.390;2022-11-20T20:55:55;2.70;99.90
19728;DHT22;10015;52.530;13.390;2022-11-20T20:58:22;2.70;99.90
19728;DHT22;10015;52.530;13.390;2022-11-20T21:00:49;2.70;99.90
19728;DHT22;10015;52.530;13.390;2022-11-20T21:03:15;2.70;99.90
19728;DHT22;10015;52.530;13.390;2022-11-20T21:05:43;2.70;99.90
19728;DHT22;10015;52.530;13.390;2022-11-20T21:08:10;2.70;99.90
19728;DHT22;10015;52.530;13.390;2022-11-20T21:10:51;2.60;99.90
19728;DHT22;10015;52.530;13.390;2022-11-20T21:13:17;2.60;99.90
19728;DHT22;10015;52.530;13.390;2022-11-20T21:15:46;2.60;99.90
19728;DHT22;10015;52.530;13.390;2022-11-20T21:18:17;2.60;99.90
19728;DHT22;10015;52.530;13.390;2022-11-20T21:20:44;2.60;99.90
19728;DHT22;10015;52.530;13.390;2022-11-20T21:23:29;2.60;99.90
19728;DHT22;10015;52.530;13.390;2022-11-20T21:25:56;2.50;99.90
19728;DHT22;10015;52.530;13.390;2022-11-20T21:28:22;2.40;99.90
19728;DHT22;10015;52.530;13.390;2022-11-20T21:30:48;2.40;99.90
19728;DHT22;10015;52.530;13.390;2022-11-20T21:33:14;2.40;99.90
19728;DHT22;10015;52.530;13.390;2022-11-20T21:35:41;2.20;99.90
19728;DHT22;10015;52.530;13.390;2022-11-20T21:38:07;2.20;99.90
19728;DHT22;10015;52.530;13.390;2022-11-20T21:40:33;2.20;99.90
19728;DHT22;10015;52.530;13.390;2022-11-20T21:42:59;2.20;99.90
19728;DHT22;10015;52.530;13.390;2022-11-20T21:45:25;2.20;99.90
19728;DHT22;10015;52.530;13.390;2022-11-20T21:47:51;2.20;99.90
19728;DHT22;10015;52.530;13.390;2022-11-20T21:50:17;2.30;99.90
19728;DHT22;10015;52.530;13.390;2022-11-20T21:52:44;2.20;99.90
19728;DHT22;10015;52.530;13.390;2022-11-20T21:55:10;2.20;99.90
19728;DHT22;10015;52.530;13.390;2022-11-20T21:57:36;2.20;99.90
19728;DHT22;10015;52.530;13.390;2022-11-20T22:00:03;2.20;99.90
19728;DHT22;10015;52.530;13.390;2022-11-20T22:02:37;2.10;99.90
19728;DHT22;10015;52.530;13.390;2022-11-20T22:05:06;2.10;99.90
19728;DHT22;10015;52.530;13.390;2022-11-20T22:07:32;2.10;99.90
19728;DHT22;10015;52.530;13.390;2022-11-20T22:09:58;2.10;99.90
19728;DHT22;10015;52.530;13.390;2022-11-20T22:12:24;2.10;99.90
19728;DHT22;10015;52.530;13.390;2022-11-20T22:14:50;2.10;99.90
19728;DHT22;10015;52.530;13.390;2022-11-20T22:17:16;2.10;99.90
19728;DHT22;10015;52.530;13.390;2022-11-20T22:20:02;2.10;99.90
19728;DHT22;10015;52.530;13.390;2022-11-20T22:22:28;2.10;99.90
19728;DHT22;10015;52.530;13.390;2022-11-20T22:24:54;2.20;99.90
19728;DHT22;10015;52.530;13.390;2022-11-20T22:27:20;2.10;99.90
19728;DHT22;10015;52.530;13.390;2022-11-20T22:29:46;2.10;99.90
19728;DHT22;10015;52.530;13.390;2022-11-20T22:32:12;2.10;99.90
19728;DHT22;10015;52.530;13.390;2022-11-20T22:34:38;1.90;99.90
19728;DHT22;10015;52.530;13.390;2022-11-20T22:37:04;1.60;99.90
19728;DHT22;10015;52.530;13.390;2022-11-20T22:39:30;1.60;99.90
19728;DHT22;10015;52.530;13.390;2022-11-20T22:41:55;1.50;99.90
19728;DHT22;10015;52.530;13.390;2022-11-20T22:44:21;1.60;99.90
19728;DHT22;10015;52.530;13.390;2022-11-20T22:46:47;1.70;99.90
19728;DHT22;10015;52.530;13.390;2022-11-20T22:49:13;1.70;99.90
19728;DHT22;10015;52.530;13.390;2022-11-20T22:51:40;1.70;99.90
19728;DHT22;10015;52.530;13.390;2022-11-20T22:54:06;1.60;99.90
19728;DHT22;10015;52.530;13.390;2022-11-20T22:56:34;1.60;99.90
19728;DHT22;10015;52.530;13.390;2022-11-20T22:59:00;1.60;99.90
19728;DHT22;10015;52.530;13.390;2022-11-20T23:01:34;1.60;99.90
19728;DHT22;10015;52.530;13.390;2022-11-20T23:04:03;1.60;99.90
19728;DHT22;10015;52.530;13.390;2022-11-20T23:06:30;1.70;99.90
19728;DHT22;10015;52.530;13.390;2022-11-20T23:08:58;1.70;99.90
19728;DHT22;10015;52.530;13.390;2022-11-20T23:11:27;1.70;99.90
19728;DHT22;10015;52.530;13.390;2022-11-20T23:13:54;1.60;99.90
19728;DHT22;10015;52.530;13.390;2022-11-20T23:16:23;1.50;99.90
19728;DHT22;10015;52.530;13.390;2022-11-20T23:19:01;1.30;99.90
19728;DHT22;10015;52.530;13.390;2022-11-20T23:21:28;1.30;99.90
19728;DHT22;10015;52.530;13.390;2022-11-20T23:23:56;1.50;99.90
19728;DHT22;10015;52.530;13.390;2022-11-20T23:26:31;1.50;99.90
19728;DHT22;10015;52.530;13.390;2022-11-20T23:28:58;1.50;99.90
19728;DHT22;10015;52.530;13.390;2022-11-20T23:31:26;1.60;99.90
19728;DHT22;10015;52.530;13.390;2022-11-20T23:33:53;1.50;99.90
19728;DHT22;10015;52.530;13.390;2022-11-20T23:36:19;1.50;99.90
19728;DHT22;10015;52.530;13.390;2022-11-20T23:38:45;1.40;99.90
19728;DHT22;10015;52.530;13.390;2022-11-20T23:41:12;1.30;99.90
19728;DHT22;10015;52.530;13.390;2022-11-20T23:43:39;1.40;99.90
19728;DHT22;10015;52.530;13.390;2022-11-20T23:46:05;1.30;99.90
19728;DHT22;10015;52.530;13.390;2022-11-20T23:48:34;1.20;99.90
19728;DHT22;10015;52.530;13.390;2022-11-20T23:51:01;1.30;99.90
19728;DHT22;10015;52.530;13.390;2022-11-20T23:53:27;1.30;99.90
19728;DHT22;10015;52.530;13.390;2022-11-20T23:55:56;1.30;99.90
19728;DHT22;10015;52.530;13.390;2022-11-20T23:58:24;1.30;99.90
